sensor_id;sensor_type;location;lat;lon;timestamp;temperature;humidity
21429;DHT22;10875;50.444;30.540;2022-10-16T00:04:02;7.70;99.90
21429;DHT22;10875;50.444;30.540;2022-10-16T00:06:28;8.00;99.90
21429;DHT22;10875;50.444;30.540;2022-10-16T00:08:55;8.30;99.90
21429;DHT22;10875;50.444;30.540;2022-10-16T00:11:32;8.00;99.90
21429;DHT22;10875;50.444;30.540;2022-10-16T00:14:07;8.00;99.90
21429;DHT22;10875;50.444;30.540;2022-10-16T00:16:34;8.00;99.90
21429;DHT22;10875;50.444;30.540;2022-10-16T00:21:28;8.00;99.90
21429;DHT22;10875;50.444;30.540;2022-10-16T00:24:02;7.60;99.90
21429;DHT22;10875;50.444;30.540;2022-10-16T00:26:29;7.90;99.90
21429;DHT22;10875;50.444;30.540;2022-10-16T00:28:55;7.60;99.90
21429;DHT22;10875;50.444;30.540;2022-10-16T00:31:22;7.40;99.90
21429;DHT22;10875;50.444;30.540;2022-10-16T00:33:48;7.70;99.90
21429;DHT22;10875;50.444;30.540;2022-10-16T00:36:17;7.40;99.90
21429;DHT22;10875;50.444;30.540;2022-10-16T00:38:43;8.20;99.90
21429;DHT22;10875;50.444;30.540;2022-10-16T00:41:15;8.10;99.90
21429;DHT22;10875;50.444;30.540;2022-10-16T00:43:47;8.00;99.90
21429;DHT22;10875;50.444;30.540;2022-10-16T00:46:25;7.80;99.90
21429;DHT22;10875;50.444;30.540;2022-10-16T00:49:01;8.10;99.90
21429;DHT22;10875;50.444;30.540;2022-10-16T00:51:35;8.20;99.90
21429;DHT22;10875;50.444;30.540;2022-10-16T00:54:04;7.80;99.90
21429;DHT22;10875;50.444;30.540;2022-10-16T00:58:59;7.80;99.90
21429;DHT22;10875;50.444;30.540;2022-10-16T01:06:31;7.70;99.90
21429;DHT22;10875;50.444;30.540;2022-10-16T01:09:18;7.90;99.90
21429;DHT22;10875;50.444;30.540;2022-10-16T01:12:05;7.70;99.90
21429;DHT22;10875;50.444;30.540;2022-10-16T01:14:42;7.70;99.90
21429;DHT22;10875;50.444;30.540;2022-10-16T01:17:30;7.60;99.90
21429;DHT22;10875;50.444;30.540;2022-10-16T01:23:07;7.50;99.90
21429;DHT22;10875;50.444;30.540;2022-10-16T01:28:22;7.40;99.90
21429;DHT22;10875;50.444;30.540;2022-10-16T01:30:56;7.50;99.90
21429;DHT22;10875;50.444;30.540;2022-10-16T01:33:32;7.60;99.90
21429;DHT22;10875;50.444;30.540;2022-10-16T01:36:03;7.20;99.90
21429;DHT22;10875;50.444;30.540;2022-10-16T01:38:36;7.40;99.90
21429;DHT22;10875;50.444;30.540;2022-10-16T01:41:16;6.80;99.90
21429;DHT22;10875;50.444;30.540;2022-10-16T01:44:19;7.60;99.90
21429;DHT22;10875;50.444;30.540;2022-10-16T01:46:46;7.30;99.90
21429;DHT22;10875;50.444;30.540;2022-10-16T01:49:13;6.80;99.90
21429;DHT22;10875;50.444;30.540;2022-10-16T01:51:39;7.30;99.90
21429;DHT22;10875;50.444;30.540;2022-10-16T01:54:08;7.30;99.90
21429;DHT22;10875;50.444;30.540;2022-10-16T01:56:35;7.00;99.90
21429;DHT22;10875;50.444;30.540;2022-10-16T01:59:12;7.30;99.90
21429;DHT22;10875;50.444;30.540;2022-10-16T02:01:42;8.40;99.90
21429;DHT22;10875;50.444;30.540;2022-10-16T02:04:21;7.30;99.90
21429;DHT22;10875;50.444;30.540;2022-10-16T02:11:42;7.50;99.90
21429;DHT22;10875;50.444;30.540;2022-10-16T02:16:37;7.20;99.90
21429;DHT22;10875;50.444;30.540;2022-10-16T02:19:04;6.80;99.90
21429;DHT22;10875;50.444;30.540;2022-10-16T02:21:37;7.10;99.90
21429;DHT22;10875;50.444;30.540;2022-10-16T02:24:26;6.90;99.90
21429;DHT22;10875;50.444;30.540;2022-10-16T02:29:55;6.70;99.90
21429;DHT22;10875;50.444;30.540;2022-10-16T02:32:26;7.40;99.90
21429;DHT22;10875;50.444;30.540;2022-10-16T02:34:54;6.80;99.90
21429;DHT22;10875;50.444;30.540;2022-10-16T02:39:46;7.20;99.90
21429;DHT22;10875;50.444;30.540;2022-10-16T02:42:13;7.00;99.90
21429;DHT22;10875;50.444;30.540;2022-10-16T02:44:39;7.30;99.90
21429;DHT22;10875;50.444;30.540;2022-10-16T02:47:04;7.10;99.90
21429;DHT22;10875;50.444;30.540;2022-10-16T02:56:49;7.10;99.90
21429;DHT22;10875;50.444;30.540;2022-10-16T02:59:15;7.00;99.90
21429;DHT22;10875;50.444;30.540;2022-10-16T03:06:32;7.10;99.90
21429;DHT22;10875;50.444;30.540;2022-10-16T03:08:58;6.30;99.90
21429;DHT22;10875;50.444;30.540;2022-10-16T03:11:23;6.50;99.90
21429;DHT22;10875;50.444;30.540;2022-10-16T03:21:09;6.50;99.90
21429;DHT22;10875;50.444;30.540;2022-10-16T03:28:26;6.80;99.90
21429;DHT22;10875;50.444;30.540;2022-10-16T03:30:52;6.80;99.90
21429;DHT22;10875;50.444;30.540;2022-10-16T03:33:18;6.60;99.90
21429;DHT22;10875;50.444;30.540;2022-10-16T03:35:51;6.90;99.90
21429;DHT22;10875;50.444;30.540;2022-10-16T03:40:43;6.80;99.90
21429;DHT22;10875;50.444;30.540;2022-10-16T03:43:08;7.00;99.90
21429;DHT22;10875;50.444;30.540;2022-10-16T03:52:54;6.60;99.90
21429;DHT22;10875;50.444;30.540;2022-10-16T03:55:19;6.20;99.90
21429;DHT22;10875;50.444;30.540;2022-10-16T04:00:11;6.50;99.90
21429;DHT22;10875;50.444;30.540;2022-10-16T04:05:04;6.70;99.90
21429;DHT22;10875;50.444;30.540;2022-10-16T04:12:23;6.40;99.90
21429;DHT22;10875;50.444;30.540;2022-10-16T04:14:48;6.80;99.90
21429;DHT22;10875;50.444;30.540;2022-10-16T04:19:40;6.20;99.90
21429;DHT22;10875;50.444;30.540;2022-10-16T04:22:05;5.90;99.90
21429;DHT22;10875;50.444;30.540;2022-10-16T04:24:31;6.70;99.90
21429;DHT22;10875;50.444;30.540;2022-10-16T04:29:22;6.20;99.90
21429;DHT22;10875;50.444;30.540;2022-10-16T04:34:14;6.20;99.90
21429;DHT22;10875;50.444;30.540;2022-10-16T04:36:39;6.70;99.90
21429;DHT22;10875;50.444;30.540;2022-10-16T04:39:05;6.70;99.90
21429;DHT22;10875;50.444;30.540;2022-10-16T04:41:31;6.40;99.90
21429;DHT22;10875;50.444;30.540;2022-10-16T04:51:14;6.30;99.90
21429;DHT22;10875;50.444;30.540;2022-10-16T04:53:40;6.70;99.90
21429;DHT22;10875;50.444;30.540;2022-10-16T05:00:58;6.90;99.90
21429;DHT22;10875;50.444;30.540;2022-10-16T05:03:23;6.60;99.90
21429;DHT22;10875;50.444;30.540;2022-10-16T05:05:49;6.00;99.90
21429;DHT22;10875;50.444;30.540;2022-10-16T05:08:16;6.70;99.90
21429;DHT22;10875;50.444;30.540;2022-10-16T05:10:42;6.60;99.90
21429;DHT22;10875;50.444;30.540;2022-10-16T05:13:08;6.80;99.90
21429;DHT22;10875;50.444;30.540;2022-10-16T05:15:34;6.60;99.90
21429;DHT22;10875;50.444;30.540;2022-10-16T05:18:00;6.30;99.90
21429;DHT22;10875;50.444;30.540;2022-10-16T05:22:51;6.70;99.90
21429;DHT22;10875;50.444;30.540;2022-10-16T05:25:17;6.70;99.90
21429;DHT22;10875;50.444;30.540;2022-10-16T05:30:10;6.70;99.90
21429;DHT22;10875;50.444;30.540;2022-10-16T05:32:35;6.70;99.90
21429;DHT22;10875;50.444;30.540;2022-10-16T05:35:01;7.30;99.90
21429;DHT22;10875;50.444;30.540;2022-10-16T05:37:29;6.90;99.90
21429;DHT22;10875;50.444;30.540;2022-10-16T05:47:13;7.60;99.90
21429;DHT22;10875;50.444;30.540;2022-10-16T05:52:05;7.10;99.90
21429;DHT22;10875;50.444;30.540;2022-10-16T05:54:31;8.00;99.90
21429;DHT22;10875;50.444;30.540;2022-10-16T05:56:56;7.90;99.90
21429;DHT22;10875;50.444;30.540;2022-10-16T06:01:48;8.20;99.90
21429;DHT22;10875;50.444;30.540;2022-10-16T06:09:06;8.60;99.90
21429;DHT22;10875;50.444;30.540;2022-10-16T06:14:00;9.30;99.90
21429;DHT22;10875;50.444;30.540;2022-10-16T06:16:28;9.00;99.90
21429;DHT22;10875;50.444;30.540;2022-10-16T06:18:55;9.30;99.90
21429;DHT22;10875;50.444;30.540;2022-10-16T06:21:23;9.10;99.90
21429;DHT22;10875;50.444;30.540;2022-10-16T06:23:53;9.10;99.90
21429;DHT22;10875;50.444;30.540;2022-10-16T06:26:20;9.70;99.90
21429;DHT22;10875;50.444;30.540;2022-10-16T06:28:47;10.00;99.90
21429;DHT22;10875;50.444;30.540;2022-10-16T06:31:13;10.00;99.90
21429;DHT22;10875;50.444;30.540;2022-10-16T06:33:39;9.80;99.90
21429;DHT22;10875;50.444;30.540;2022-10-16T06:36:06;9.80;99.90
21429;DHT22;10875;50.444;30.540;2022-10-16T06:38:32;9.70;99.90
21429;DHT22;10875;50.444;30.540;2022-10-16T06:40:58;9.30;99.90
21429;DHT22;10875;50.444;30.540;2022-10-16T06:43:24;9.70;99.90
21429;DHT22;10875;50.444;30.540;2022-10-16T06:45:55;9.70;99.90
21429;DHT22;10875;50.444;30.540;2022-10-16T06:48:21;10.20;99.90
21429;DHT22;10875;50.444;30.540;2022-10-16T06:50:58;9.80;99.90
21429;DHT22;10875;50.444;30.540;2022-10-16T06:53:24;10.30;99.90
21429;DHT22;10875;50.444;30.540;2022-10-16T06:55:50;10.80;99.90
21429;DHT22;10875;50.444;30.540;2022-10-16T06:58:16;10.00;99.90
21429;DHT22;10875;50.444;30.540;2022-10-16T07:00:41;10.10;99.90
21429;DHT22;10875;50.444;30.540;2022-10-16T07:03:07;10.40;99.90
21429;DHT22;10875;50.444;30.540;2022-10-16T07:05:40;10.50;99.90
21429;DHT22;10875;50.444;30.540;2022-10-16T07:08:06;10.60;99.90
21429;DHT22;10875;50.444;30.540;2022-10-16T07:10:33;10.70;99.90
21429;DHT22;10875;50.444;30.540;2022-10-16T07:12:58;10.20;99.90
21429;DHT22;10875;50.444;30.540;2022-10-16T07:15:25;10.10;99.90
21429;DHT22;10875;50.444;30.540;2022-10-16T07:17:51;11.00;99.90
21429;DHT22;10875;50.444;30.540;2022-10-16T07:20:17;10.90;99.90
21429;DHT22;10875;50.444;30.540;2022-10-16T07:22:43;10.60;99.90
21429;DHT22;10875;50.444;30.540;2022-10-16T07:25:08;11.50;99.90
21429;DHT22;10875;50.444;30.540;2022-10-16T07:27:34;10.80;99.90
21429;DHT22;10875;50.444;30.540;2022-10-16T07:30:00;11.70;99.90
21429;DHT22;10875;50.444;30.540;2022-10-16T07:32:26;11.40;99.90
21429;DHT22;10875;50.444;30.540;2022-10-16T07:34:52;12.00;99.90
21429;DHT22;10875;50.444;30.540;2022-10-16T07:37:18;11.70;99.90
21429;DHT22;10875;50.444;30.540;2022-10-16T07:42:10;11.60;99.90
21429;DHT22;10875;50.444;30.540;2022-10-16T07:47:01;11.70;99.90
21429;DHT22;10875;50.444;30.540;2022-10-16T07:49:27;12.00;99.90
21429;DHT22;10875;50.444;30.540;2022-10-16T07:51:52;12.00;99.90
21429;DHT22;10875;50.444;30.540;2022-10-16T07:54:18;12.20;99.90
21429;DHT22;10875;50.444;30.540;2022-10-16T07:59:10;11.40;99.90
21429;DHT22;10875;50.444;30.540;2022-10-16T08:04:02;11.20;99.90
21429;DHT22;10875;50.444;30.540;2022-10-16T08:08:54;11.60;99.90
21429;DHT22;10875;50.444;30.540;2022-10-16T08:13:46;11.80;99.90
21429;DHT22;10875;50.444;30.540;2022-10-16T08:16:11;11.00;99.90
21429;DHT22;10875;50.444;30.540;2022-10-16T08:18:39;11.50;99.90
21429;DHT22;10875;50.444;30.540;2022-10-16T08:21:06;12.20;99.90
21429;DHT22;10875;50.444;30.540;2022-10-16T08:23:33;12.00;99.90
21429;DHT22;10875;50.444;30.540;2022-10-16T08:26:02;12.10;99.90
21429;DHT22;10875;50.444;30.540;2022-10-16T08:28:28;12.40;99.90
21429;DHT22;10875;50.444;30.540;2022-10-16T08:30:53;13.00;99.90
21429;DHT22;10875;50.444;30.540;2022-10-16T08:33:19;13.00;99.90
21429;DHT22;10875;50.444;30.540;2022-10-16T08:35:52;13.00;99.90
21429;DHT22;10875;50.444;30.540;2022-10-16T08:38:19;13.50;99.90
21429;DHT22;10875;50.444;30.540;2022-10-16T08:40:44;13.60;99.90
21429;DHT22;10875;50.444;30.540;2022-10-16T08:48:54;14.30;99.90
21429;DHT22;10875;50.444;30.540;2022-10-16T08:51:35;13.80;99.90
21429;DHT22;10875;50.444;30.540;2022-10-16T08:54:05;13.70;99.90
21429;DHT22;10875;50.444;30.540;2022-10-16T08:58:59;13.80;99.90
21429;DHT22;10875;50.444;30.540;2022-10-16T09:01:35;13.80;99.90
21429;DHT22;10875;50.444;30.540;2022-10-16T09:12:04;14.00;99.90
21429;DHT22;10875;50.444;30.540;2022-10-16T09:20:20;13.70;99.90
21429;DHT22;10875;50.444;30.540;2022-10-16T09:22:48;13.20;99.90
21429;DHT22;10875;50.444;30.540;2022-10-16T09:25:20;13.90;99.90
21429;DHT22;10875;50.444;30.540;2022-10-16T09:27:48;13.70;99.90
21429;DHT22;10875;50.444;30.540;2022-10-16T09:30:18;13.80;99.90
21429;DHT22;10875;50.444;30.540;2022-10-16T09:32:48;13.20;99.90
21429;DHT22;10875;50.444;30.540;2022-10-16T09:35:37;13.70;99.90
21429;DHT22;10875;50.444;30.540;2022-10-16T09:40:37;13.90;99.90
21429;DHT22;10875;50.444;30.540;2022-10-16T09:43:32;13.70;99.90
21429;DHT22;10875;50.444;30.540;2022-10-16T09:48:43;13.20;99.90
21429;DHT22;10875;50.444;30.540;2022-10-16T09:51:40;13.30;99.90
21429;DHT22;10875;50.444;30.540;2022-10-16T09:56:35;13.50;99.90
21429;DHT22;10875;50.444;30.540;2022-10-16T09:59:15;13.80;99.90
21429;DHT22;10875;50.444;30.540;2022-10-16T10:01:45;13.70;99.90
21429;DHT22;10875;50.444;30.540;2022-10-16T10:04:12;13.90;99.90
21429;DHT22;10875;50.444;30.540;2022-10-16T10:11:59;13.90;99.90
21429;DHT22;10875;50.444;30.540;2022-10-16T10:14:40;13.90;99.90
21429;DHT22;10875;50.444;30.540;2022-10-16T10:17:28;14.10;99.80
21429;DHT22;10875;50.444;30.540;2022-10-16T10:19:56;14.40;99.50
21429;DHT22;10875;50.444;30.540;2022-10-16T10:27:31;14.70;98.10
21429;DHT22;10875;50.444;30.540;2022-10-16T10:32:47;14.90;98.40
21429;DHT22;10875;50.444;30.540;2022-10-16T10:35:27;14.50;98.90
21429;DHT22;10875;50.444;30.540;2022-10-16T10:40:45;14.70;99.10
21429;DHT22;10875;50.444;30.540;2022-10-16T10:43:38;14.80;98.30
21429;DHT22;10875;50.444;30.540;2022-10-16T10:46:14;14.50;99.00
21429;DHT22;10875;50.444;30.540;2022-10-16T10:54:54;15.20;97.50
21429;DHT22;10875;50.444;30.540;2022-10-16T10:57:28;15.40;97.00
21429;DHT22;10875;50.444;30.540;2022-10-16T11:05:38;15.80;96.10
21429;DHT22;10875;50.444;30.540;2022-10-16T11:11:20;16.30;95.10
21429;DHT22;10875;50.444;30.540;2022-10-16T11:17:35;16.00;95.10
21429;DHT22;10875;50.444;30.540;2022-10-16T11:20:19;15.70;93.90
21429;DHT22;10875;50.444;30.540;2022-10-16T11:25:27;15.80;94.00
21429;DHT22;10875;50.444;30.540;2022-10-16T11:31:07;18.70;95.90
21429;DHT22;10875;50.444;30.540;2022-10-16T11:33:54;14.90;95.00
21429;DHT22;10875;50.444;30.540;2022-10-16T11:36:34;14.80;95.40
21429;DHT22;10875;50.444;30.540;2022-10-16T11:41:44;13.80;96.90
21429;DHT22;10875;50.444;30.540;2022-10-16T11:47:34;13.80;96.50
21429;DHT22;10875;50.444;30.540;2022-10-16T11:55:45;13.60;95.90
21429;DHT22;10875;50.444;30.540;2022-10-16T12:00:56;13.50;95.10
21429;DHT22;10875;50.444;30.540;2022-10-16T12:08:29;12.90;96.30
21429;DHT22;10875;50.444;30.540;2022-10-16T12:13:50;12.90;99.20
21429;DHT22;10875;50.444;30.540;2022-10-16T12:18:43;12.40;99.90
21429;DHT22;10875;50.444;30.540;2022-10-16T12:21:10;12.90;99.90
21429;DHT22;10875;50.444;30.540;2022-10-16T12:24:00;12.50;99.90
21429;DHT22;10875;50.444;30.540;2022-10-16T12:26:32;12.50;97.80
21429;DHT22;10875;50.444;30.540;2022-10-16T12:29:33;12.30;99.90
21429;DHT22;10875;50.444;30.540;2022-10-16T12:32:00;13.30;98.00
21429;DHT22;10875;50.444;30.540;2022-10-16T12:39:55;12.60;99.90
21429;DHT22;10875;50.444;30.540;2022-10-16T12:44:53;12.30;98.60
21429;DHT22;10875;50.444;30.540;2022-10-16T12:47:23;12.40;97.80
21429;DHT22;10875;50.444;30.540;2022-10-16T12:52:44;12.40;97.20
21429;DHT22;10875;50.444;30.540;2022-10-16T12:55:16;12.40;97.20
21429;DHT22;10875;50.444;30.540;2022-10-16T12:58:14;12.90;99.90
21429;DHT22;10875;50.444;30.540;2022-10-16T13:01:03;13.00;99.90
21429;DHT22;10875;50.444;30.540;2022-10-16T13:04:00;12.60;97.20
21429;DHT22;10875;50.444;30.540;2022-10-16T13:28:22;12.50;98.50
21429;DHT22;10875;50.444;30.540;2022-10-16T13:30:53;12.60;99.90
21429;DHT22;10875;50.444;30.540;2022-10-16T13:33:35;12.50;98.80
21429;DHT22;10875;50.444;30.540;2022-10-16T13:36:02;12.00;99.90
21429;DHT22;10875;50.444;30.540;2022-10-16T13:38:30;12.60;99.90
21429;DHT22;10875;50.444;30.540;2022-10-16T13:41:02;12.70;99.90
21429;DHT22;10875;50.444;30.540;2022-10-16T13:43:35;12.20;99.90
21429;DHT22;10875;50.444;30.540;2022-10-16T13:46:10;12.70;99.90
21429;DHT22;10875;50.444;30.540;2022-10-16T13:48:37;12.40;99.50
21429;DHT22;10875;50.444;30.540;2022-10-16T13:53:36;12.30;99.90
21429;DHT22;10875;50.444;30.540;2022-10-16T13:56:03;11.90;99.90
21429;DHT22;10875;50.444;30.540;2022-10-16T13:58:30;12.00;99.90
21429;DHT22;10875;50.444;30.540;2022-10-16T14:01:15;12.30;99.20
21429;DHT22;10875;50.444;30.540;2022-10-16T14:03:41;12.70;99.90
21429;DHT22;10875;50.444;30.540;2022-10-16T14:06:21;11.90;99.90
21429;DHT22;10875;50.444;30.540;2022-10-16T14:09:00;12.20;99.90
21429;DHT22;10875;50.444;30.540;2022-10-16T14:13:53;12.20;99.50
21429;DHT22;10875;50.444;30.540;2022-10-16T14:16:27;12.20;99.10
21429;DHT22;10875;50.444;30.540;2022-10-16T14:19:04;12.20;99.90
21429;DHT22;10875;50.444;30.540;2022-10-16T14:21:32;12.10;99.30
21429;DHT22;10875;50.444;30.540;2022-10-16T14:23:58;12.10;99.50
21429;DHT22;10875;50.444;30.540;2022-10-16T14:26:27;12.30;99.90
21429;DHT22;10875;50.444;30.540;2022-10-16T14:29:13;12.30;99.90
21429;DHT22;10875;50.444;30.540;2022-10-16T14:31:40;12.30;99.90
21429;DHT22;10875;50.444;30.540;2022-10-16T14:34:26;11.90;99.90
21429;DHT22;10875;50.444;30.540;2022-10-16T14:39:22;12.20;99.90
21429;DHT22;10875;50.444;30.540;2022-10-16T14:41:50;11.70;99.90
21429;DHT22;10875;50.444;30.540;2022-10-16T14:44:33;11.60;99.90
21429;DHT22;10875;50.444;30.540;2022-10-16T14:47:08;11.70;99.90
21429;DHT22;10875;50.444;30.540;2022-10-16T14:49:34;12.00;99.90
21429;DHT22;10875;50.444;30.540;2022-10-16T14:52:00;11.30;99.90
21429;DHT22;10875;50.444;30.540;2022-10-16T14:54:26;11.30;99.90
21429;DHT22;10875;50.444;30.540;2022-10-16T14:56:57;11.30;99.90
21429;DHT22;10875;50.444;30.540;2022-10-16T14:59:38;11.30;99.90
21429;DHT22;10875;50.444;30.540;2022-10-16T15:04:50;11.50;99.90
21429;DHT22;10875;50.444;30.540;2022-10-16T15:07:15;11.20;99.90
21429;DHT22;10875;50.444;30.540;2022-10-16T15:09:41;11.60;99.90
21429;DHT22;10875;50.444;30.540;2022-10-16T15:12:07;11.40;99.90
21429;DHT22;10875;50.444;30.540;2022-10-16T15:14:32;11.10;99.90
21429;DHT22;10875;50.444;30.540;2022-10-16T15:16:58;11.40;99.90
21429;DHT22;10875;50.444;30.540;2022-10-16T15:19:24;10.60;99.90
21429;DHT22;10875;50.444;30.540;2022-10-16T15:24:16;11.60;99.90
21429;DHT22;10875;50.444;30.540;2022-10-16T15:26:42;11.80;99.90
21429;DHT22;10875;50.444;30.540;2022-10-16T15:29:07;10.70;99.90
21429;DHT22;10875;50.444;30.540;2022-10-16T15:31:34;11.50;99.90
21429;DHT22;10875;50.444;30.540;2022-10-16T15:33:59;11.60;99.90
21429;DHT22;10875;50.444;30.540;2022-10-16T15:36:31;10.80;99.90
21429;DHT22;10875;50.444;30.540;2022-10-16T15:38:59;11.30;99.90
21429;DHT22;10875;50.444;30.540;2022-10-16T15:43:51;11.50;99.90
21429;DHT22;10875;50.444;30.540;2022-10-16T15:46:19;11.20;99.90
21429;DHT22;10875;50.444;30.540;2022-10-16T15:48:46;11.20;99.90
21429;DHT22;10875;50.444;30.540;2022-10-16T15:51:11;11.00;99.90
21429;DHT22;10875;50.444;30.540;2022-10-16T15:53:37;10.80;99.90
21429;DHT22;10875;50.444;30.540;2022-10-16T15:56:07;10.70;99.90
21429;DHT22;10875;50.444;30.540;2022-10-16T15:58:33;10.60;99.90
21429;DHT22;10875;50.444;30.540;2022-10-16T16:01:00;10.80;99.90
21429;DHT22;10875;50.444;30.540;2022-10-16T16:03:27;10.30;99.90
21429;DHT22;10875;50.444;30.540;2022-10-16T16:05:54;11.10;99.90
21429;DHT22;10875;50.444;30.540;2022-10-16T16:08:19;10.80;99.90
21429;DHT22;10875;50.444;30.540;2022-10-16T16:10:45;10.30;99.90
21429;DHT22;10875;50.444;30.540;2022-10-16T16:13:11;11.00;99.90
21429;DHT22;10875;50.444;30.540;2022-10-16T16:15:40;10.80;99.90
21429;DHT22;10875;50.444;30.540;2022-10-16T16:18:06;10.70;99.90
21429;DHT22;10875;50.444;30.540;2022-10-16T16:25:24;10.00;99.90
21429;DHT22;10875;50.444;30.540;2022-10-16T16:30:15;10.20;99.90
21429;DHT22;10875;50.444;30.540;2022-10-16T16:32:44;10.20;99.90
21429;DHT22;10875;50.444;30.540;2022-10-16T16:35:09;10.80;99.90
21429;DHT22;10875;50.444;30.540;2022-10-16T16:37:35;10.40;99.90
21429;DHT22;10875;50.444;30.540;2022-10-16T16:40:00;10.40;99.90
21429;DHT22;10875;50.444;30.540;2022-10-16T16:42:26;10.40;99.90
21429;DHT22;10875;50.444;30.540;2022-10-16T16:44:53;9.90;99.90
21429;DHT22;10875;50.444;30.540;2022-10-16T16:47:18;10.50;99.90
21429;DHT22;10875;50.444;30.540;2022-10-16T16:49:44;10.40;99.90
21429;DHT22;10875;50.444;30.540;2022-10-16T16:52:11;9.90;99.90
21429;DHT22;10875;50.444;30.540;2022-10-16T16:54:37;9.80;99.90
21429;DHT22;10875;50.444;30.540;2022-10-16T16:57:03;10.10;99.90
21429;DHT22;10875;50.444;30.540;2022-10-16T16:59:29;9.70;99.90
21429;DHT22;10875;50.444;30.540;2022-10-16T17:04:24;9.90;99.90
21429;DHT22;10875;50.444;30.540;2022-10-16T17:06:49;9.40;99.90
21429;DHT22;10875;50.444;30.540;2022-10-16T17:09:15;9.60;99.90
21429;DHT22;10875;50.444;30.540;2022-10-16T17:11:41;10.00;99.90
21429;DHT22;10875;50.444;30.540;2022-10-16T17:14:08;10.00;99.90
21429;DHT22;10875;50.444;30.540;2022-10-16T17:16:35;10.00;99.90
21429;DHT22;10875;50.444;30.540;2022-10-16T17:19:06;9.70;99.90
21429;DHT22;10875;50.444;30.540;2022-10-16T17:21:33;9.70;99.90
21429;DHT22;10875;50.444;30.540;2022-10-16T17:23:59;9.70;99.90
21429;DHT22;10875;50.444;30.540;2022-10-16T17:26:26;9.60;99.90
21429;DHT22;10875;50.444;30.540;2022-10-16T17:28:53;9.70;99.90
21429;DHT22;10875;50.444;30.540;2022-10-16T17:31:22;9.70;99.90
21429;DHT22;10875;50.444;30.540;2022-10-16T17:33:48;9.60;99.90
21429;DHT22;10875;50.444;30.540;2022-10-16T17:36:14;9.70;99.90
21429;DHT22;10875;50.444;30.540;2022-10-16T17:38:40;9.60;99.90
21429;DHT22;10875;50.444;30.540;2022-10-16T17:41:11;9.80;99.90
21429;DHT22;10875;50.444;30.540;2022-10-16T17:43:37;9.40;99.90
21429;DHT22;10875;50.444;30.540;2022-10-16T17:46:04;9.70;99.90
21429;DHT22;10875;50.444;30.540;2022-10-16T17:48:30;9.60;99.90
21429;DHT22;10875;50.444;30.540;2022-10-16T17:50:55;9.60;99.90
21429;DHT22;10875;50.444;30.540;2022-10-16T17:53:21;9.60;99.90
21429;DHT22;10875;50.444;30.540;2022-10-16T17:55:46;9.60;99.90
21429;DHT22;10875;50.444;30.540;2022-10-16T17:58:12;9.60;99.90
21429;DHT22;10875;50.444;30.540;2022-10-16T18:00:37;9.60;99.90
21429;DHT22;10875;50.444;30.540;2022-10-16T18:03:03;10.00;99.90
21429;DHT22;10875;50.444;30.540;2022-10-16T18:05:29;9.60;99.90
21429;DHT22;10875;50.444;30.540;2022-10-16T18:07:54;10.20;99.90
21429;DHT22;10875;50.444;30.540;2022-10-16T18:10:20;9.50;99.90
21429;DHT22;10875;50.444;30.540;2022-10-16T18:12:46;9.30;99.90
21429;DHT22;10875;50.444;30.540;2022-10-16T18:15:11;9.40;99.90
21429;DHT22;10875;50.444;30.540;2022-10-16T18:17:37;9.40;99.90
21429;DHT22;10875;50.444;30.540;2022-10-16T18:20:04;9.40;99.90
21429;DHT22;10875;50.444;30.540;2022-10-16T18:22:34;9.30;99.90
21429;DHT22;10875;50.444;30.540;2022-10-16T18:25:01;9.30;99.90
21429;DHT22;10875;50.444;30.540;2022-10-16T18:27:29;9.30;99.90
21429;DHT22;10875;50.444;30.540;2022-10-16T18:29:55;9.40;99.90
21429;DHT22;10875;50.444;30.540;2022-10-16T18:32:22;9.30;99.90
21429;DHT22;10875;50.444;30.540;2022-10-16T18:34:48;9.10;99.90
21429;DHT22;10875;50.444;30.540;2022-10-16T18:37:13;9.20;99.90
21429;DHT22;10875;50.444;30.540;2022-10-16T18:39:40;9.20;99.90
21429;DHT22;10875;50.444;30.540;2022-10-16T18:42:06;8.90;99.90
21429;DHT22;10875;50.444;30.540;2022-10-16T18:44:32;9.40;99.90
21429;DHT22;10875;50.444;30.540;2022-10-16T18:46:58;8.80;99.90
21429;DHT22;10875;50.444;30.540;2022-10-16T18:49:23;9.20;99.90
21429;DHT22;10875;50.444;30.540;2022-10-16T18:51:50;9.10;99.90
21429;DHT22;10875;50.444;30.540;2022-10-16T18:54:21;9.20;99.90
21429;DHT22;10875;50.444;30.540;2022-10-16T18:56:46;9.20;99.90
21429;DHT22;10875;50.444;30.540;2022-10-16T18:59:12;9.70;99.90
21429;DHT22;10875;50.444;30.540;2022-10-16T19:01:38;9.40;99.90
21429;DHT22;10875;50.444;30.540;2022-10-16T19:04:07;9.40;99.90
21429;DHT22;10875;50.444;30.540;2022-10-16T19:06:35;9.40;99.90
21429;DHT22;10875;50.444;30.540;2022-10-16T19:09:01;8.90;99.90
21429;DHT22;10875;50.444;30.540;2022-10-16T19:11:27;9.20;99.90
21429;DHT22;10875;50.444;30.540;2022-10-16T19:13:53;8.90;99.90
21429;DHT22;10875;50.444;30.540;2022-10-16T19:16:22;9.30;99.90
21429;DHT22;10875;50.444;30.540;2022-10-16T19:18:50;9.10;99.90
21429;DHT22;10875;50.444;30.540;2022-10-16T19:21:16;9.50;99.90
21429;DHT22;10875;50.444;30.540;2022-10-16T19:23:43;9.00;99.90
21429;DHT22;10875;50.444;30.540;2022-10-16T19:26:16;9.20;99.90
21429;DHT22;10875;50.444;30.540;2022-10-16T19:28:42;9.10;99.90
21429;DHT22;10875;50.444;30.540;2022-10-16T19:31:11;9.10;99.90
21429;DHT22;10875;50.444;30.540;2022-10-16T19:33:37;9.30;99.90
21429;DHT22;10875;50.444;30.540;2022-10-16T19:36:15;9.60;99.90
21429;DHT22;10875;50.444;30.540;2022-10-16T19:38:41;9.00;99.90
21429;DHT22;10875;50.444;30.540;2022-10-16T19:41:10;9.00;99.90
21429;DHT22;10875;50.444;30.540;2022-10-16T19:43:36;8.90;99.90
21429;DHT22;10875;50.444;30.540;2022-10-16T19:46:23;8.90;99.90
21429;DHT22;10875;50.444;30.540;2022-10-16T19:49:00;8.80;99.90
21429;DHT22;10875;50.444;30.540;2022-10-16T19:51:26;9.00;99.90
21429;DHT22;10875;50.444;30.540;2022-10-16T19:53:55;8.90;99.90
21429;DHT22;10875;50.444;30.540;2022-10-16T19:56:23;9.20;99.90
21429;DHT22;10875;50.444;30.540;2022-10-16T19:58:49;8.70;99.90
21429;DHT22;10875;50.444;30.540;2022-10-16T20:01:15;8.90;99.90
21429;DHT22;10875;50.444;30.540;2022-10-16T20:03:46;8.80;99.90
21429;DHT22;10875;50.444;30.540;2022-10-16T20:06:12;8.80;99.90
21429;DHT22;10875;50.444;30.540;2022-10-16T20:08:39;8.70;99.90
21429;DHT22;10875;50.444;30.540;2022-10-16T20:11:09;9.00;99.90
21429;DHT22;10875;50.444;30.540;2022-10-16T20:13:36;8.80;99.90
21429;DHT22;10875;50.444;30.540;2022-10-16T20:16:02;8.70;99.90
21429;DHT22;10875;50.444;30.540;2022-10-16T20:18:28;8.80;99.90
21429;DHT22;10875;50.444;30.540;2022-10-16T20:20:54;8.40;99.90